Time;durP1;ratioP1;P1;durP2;ratioP2;P2;SDS_P1;SDS_P2;PMS_P1;PMS_P2;Temp;Humidity;BMP_temperature;BMP_pressure;BME280_temperature;BME280_humidity;BME280_pressure;Samples;Min_cycle;Max_cycle;Signal;HPM_P1;HPM_P2
2021/10/24 00:00:12;;;;;;;192.13;181.73;;;;;;;6.57;70.01;102571.75;688039;28;23456;-69
2021/10/24 00:00:33;;;;;;;188.35;178.20;;;;;;;6.59;69.85;102571.63;687456;28;46293;-69
2021/10/24 00:00:54;;;;;;;195.15;184.65;;;;;;;6.58;70.17;102568.09;688258;28;22414;-69
2021/10/24 00:01:15;;;;;;;186.40;176.40;;;;;;;6.61;70.27;102567.84;688690;28;22421;-69
2021/10/24 00:01:37;;;;;;;190.00;179.87;;;;;;;6.65;70.30;102573.91;687641;28;46341;-69
2021/10/24 00:01:58;;;;;;;221.48;209.60;;;;;;;6.64;70.27;102572.16;688030;28;44171;-69
2021/10/24 00:02:19;;;;;;;211.15;199.88;;;;;;;6.63;70.20;102571.31;688900;28;22371;-69
2021/10/24 00:02:41;;;;;;;197.95;187.35;;;;;;;6.63;70.24;102567.75;688384;28;44412;-69
2021/10/24 00:03:03;;;;;;;185.40;175.45;;;;;;;6.63;70.37;102573.13;688898;28;22417;-69
2021/10/24 00:03:24;;;;;;;181.77;172.00;;;;;;;6.61;70.28;102567.84;687897;28;46510;-70
2021/10/24 00:03:45;;;;;;;207.77;196.65;;;;;;;6.62;70.36;102574.94;688054;28;22243;-69
2021/10/24 00:04:06;;;;;;;206.20;195.15;;;;;;;6.61;70.44;102567.84;688678;28;22403;-69
2021/10/24 00:04:31;;;;;;;196.57;186.00;;;;;;;6.60;70.39;102567.97;688907;28;23355;-70
2021/10/24 00:04:53;;;;;;;195.45;184.95;;;;;;;6.60;70.45;102565.28;685622;28;115342;-69
2021/10/24 00:05:14;;;;;;;222.75;210.85;;;;;;;6.58;70.43;102568.09;691672;28;72263;-69
2021/10/24 00:05:36;;;;;;;214.40;202.95;;;;;;;6.59;70.19;102566.25;693515;28;22409;-69
2021/10/24 00:05:58;;;;;;;202.50;191.60;;;;;;;6.58;70.22;102568.09;692769;28;44394;-69
2021/10/24 00:06:19;;;;;;;200.38;189.57;;;;;;;6.58;70.13;102568.09;694333;28;22379;-69
2021/10/24 00:06:40;;;;;;;203.32;192.40;;;;;;;6.56;70.19;102563.78;693676;28;23938;-69
2021/10/24 00:07:02;;;;;;;195.00;184.50;;;;;;;6.56;70.18;102564.63;692796;28;23413;-69
2021/10/24 00:07:23;;;;;;;209.05;197.80;;;;;;;6.56;69.98;102561.94;687944;28;44038;-69
2021/10/24 00:07:44;;;;;;;223.80;211.73;;;;;;;6.56;70.14;102569.16;688177;28;23433;-70
2021/10/24 00:08:05;;;;;;;212.23;200.82;;;;;;;6.56;70.10;102559.28;688854;28;21592;-70
2021/10/24 00:08:27;;;;;;;203.00;192.10;;;;;;;6.56;70.23;102567.31;688134;28;46325;-69
2021/10/24 00:08:49;;;;;;;220.90;209.05;;;;;;;6.55;69.82;102564.75;687496;28;45259;-69
2021/10/24 00:09:11;;;;;;;219.27;207.55;;;;;;;6.53;69.88;102567.53;687723;28;44211;-69
2021/10/24 00:09:32;;;;;;;207.77;196.68;;;;;;;6.53;69.93;102564.84;688885;28;23268;-70
2021/10/24 00:09:53;;;;;;;205.85;194.88;;;;;;;6.53;70.02;102569.38;688837;28;23622;-68
2021/10/24 00:10:15;;;;;;;242.77;229.77;;;;;;;6.50;69.85;102565.06;688194;28;22375;-69
2021/10/24 00:10:36;;;;;;;241.00;228.07;;;;;;;6.49;69.83;102564.22;688531;28;26890;-70
2021/10/24 00:10:57;;;;;;;229.48;217.23;;;;;;;6.49;69.97;102566.03;687529;28;46716;-69
2021/10/24 00:11:19;;;;;;;219.07;207.38;;;;;;;6.49;70.14;102566.03;688646;28;22460;-69
2021/10/24 00:11:41;;;;;;;209.07;197.88;;;;;;;6.47;70.15;102562.59;688854;28;23391;-69
2021/10/24 00:12:02;;;;;;;224.30;212.30;;;;;;;6.49;70.33;102568.72;687877;28;45370;-69
2021/10/24 00:12:23;;;;;;;230.57;218.25;;;;;;;6.49;70.28;102568.72;688595;28;22421;-69
2021/10/24 00:12:44;;;;;;;219.00;207.27;;;;;;;6.49;70.52;102569.56;688569;28;22411;-69
2021/10/24 00:13:06;;;;;;;216.23;204.67;;;;;;;6.50;70.31;102570.44;689596;28;21141;-69
2021/10/24 00:13:29;;;;;;;237.80;225.10;;;;;;;6.51;70.48;102571.31;687107;28;67185;-69
2021/10/24 00:13:50;;;;;;;231.10;218.73;;;;;;;6.49;70.34;102568.72;688739;28;22960;-69
2021/10/24 00:14:11;;;;;;;215.27;203.85;;;;;;;6.50;70.56;102567.75;689504;28;8261;-69
2021/10/24 00:14:33;;;;;;;212.38;201.07;;;;;;;6.49;70.41;102566.03;688923;28;22394;-69
2021/10/24 00:14:54;;;;;;;233.82;221.43;;;;;;;6.51;70.67;102571.31;687952;28;46168;-69
2021/10/24 00:15:15;;;;;;;233.18;220.77;;;;;;;6.52;70.48;102578.38;687783;28;43375;-69
2021/10/24 00:15:36;;;;;;;229.63;217.32;;;;;;;6.52;70.48;102573.88;688235;28;22401;-69
2021/10/24 00:15:58;;;;;;;235.50;222.85;;;;;;;6.55;70.44;102571.00;688365;28;21525;-69
2021/10/24 00:16:19;;;;;;;241.07;228.15;;;;;;;6.58;70.62;102575.28;687095;28;69444;-69
2021/10/24 00:16:40;;;;;;;229.43;217.05;;;;;;;6.59;70.64;102568.94;688252;28;22389;-69
2021/10/24 00:17:02;;;;;;;244.52;231.32;;;;;;;6.60;70.63;102576.00;688637;28;21528;-69
2021/10/24 00:17:24;;;;;;;246.63;233.35;;;;;;;6.57;70.62;102568.19;688352;28;22466;-69
2021/10/24 00:17:45;;;;;;;234.35;221.70;;;;;;;6.60;70.54;102570.66;687118;28;45249;-69
2021/10/24 00:18:06;;;;;;;264.17;250.02;;;;;;;6.60;70.54;102576.00;689264;28;7620;-69
2021/10/24 00:18:27;;;;;;;282.25;267.17;;;;;;;6.60;70.39;102571.53;688885;28;23488;-69
2021/10/24 00:18:48;;;;;;;271.05;256.55;;;;;;;6.59;70.47;102571.63;687472;28;46303;-69
2021/10/24 00:19:11;;;;;;;264.52;250.43;;;;;;;6.60;70.55;102571.53;688788;28;21320;-69
2021/10/24 00:19:33;;;;;;;253.25;239.73;;;;;;;6.60;70.57;102574.22;688104;28;46270;-69
2021/10/24 00:19:55;;;;;;;257.30;243.57;;;;;;;6.61;70.48;102572.38;687831;28;44391;-69
2021/10/24 00:20:17;;;;;;;264.48;250.38;;;;;;;6.61;70.44;102573.22;687020;28;65522;-69
2021/10/24 00:20:38;;;;;;;262.40;248.40;;;;;;;6.63;70.37;102573.13;687667;28;46459;-69
2021/10/24 00:21:00;;;;;;;295.90;280.15;;;;;;;6.63;70.56;102576.69;688444;28;22433;-69
2021/10/24 00:21:21;;;;;;;315.98;299.17;;;;;;;6.62;70.42;102574.94;688068;28;46337;-69
2021/10/24 00:21:42;;;;;;;312.80;296.17;;;;;;;6.64;70.36;102569.47;688491;28;22221;-69
2021/10/24 00:22:04;;;;;;;309.35;292.85;;;;;;;6.64;70.36;102572.16;688791;28;23456;-67
2021/10/24 00:22:26;;;;;;;332.35;314.55;;;;;;;6.65;70.64;102568.53;687803;28;44389;-69
2021/10/24 00:22:47;;;;;;;340.08;321.98;;;;;;;6.64;70.62;102562.28;692788;28;46234;-69
2021/10/24 00:23:08;;;;;;;330.13;312.50;;;;;;;6.66;70.70;102570.22;693602;28;22402;-69
2021/10/24 00:23:30;;;;;;;346.20;327.77;;;;;;;6.67;70.54;102562.06;694643;28;21552;-69
2021/10/24 00:23:52;;;;;;;356.10;337.15;;;;;;;6.70;70.48;102571.75;693042;28;44317;-69
2021/10/24 00:24:13;;;;;;;344.25;325.92;;;;;;;6.68;70.51;102561.09;692071;28;46320;-70
2021/10/24 00:24:34;;;;;;;359.35;340.15;;;;;;;6.70;70.46;102569.06;693196;28;24226;-69
2021/10/24 00:24:56;;;;;;;382.20;361.65;;;;;;;6.70;70.49;102568.22;688130;28;22397;-69
2021/10/24 00:25:17;;;;;;;367.00;347.40;;;;;;;6.68;70.42;102569.16;687974;28;44412;-69
2021/10/24 00:25:38;;;;;;;349.90;331.20;;;;;;;6.67;70.27;102575.50;688083;28;23457;-69
2021/10/24 00:25:59;;;;;;;348.42;329.83;;;;;;;6.68;70.54;102565.63;688335;28;22222;-69
2021/10/24 00:26:21;;;;;;;371.60;351.73;;;;;;;6.66;70.38;102570.22;688806;28;23538;-69
2021/10/24 00:26:43;;;;;;;361.95;342.63;;;;;;;6.65;70.22;102569.38;687174;28;46338;-69
2021/10/24 00:27:04;;;;;;;353.73;334.80;;;;;;;6.66;70.17;102572.91;684170;28;46308;-67
2021/10/24 00:27:26;;;;;;;378.92;358.58;;;;;;;6.67;70.30;102575.50;686590;28;21521;-69
2021/10/24 00:27:47;;;;;;;387.88;366.83;;;;;;;6.68;70.10;102577.22;681111;28;46181;-70
2021/10/24 00:28:09;;;;;;;370.90;350.92;;;;;;;6.68;70.22;102569.16;683391;28;22420;-69
2021/10/24 00:28:30;;;;;;;351.85;333.08;;;;;;;6.70;70.29;102578.94;684041;28;44390;-69
2021/10/24 00:28:52;;;;;;;361.48;342.17;;;;;;;6.68;70.15;102569.16;687485;28;22396;-69
2021/10/24 00:29:13;;;;;;;367.98;348.27;;;;;;;6.68;70.23;102569.16;685657;28;45080;-69
2021/10/24 00:29:35;;;;;;;356.77;337.67;;;;;;;6.69;70.25;102570.00;687255;28;21552;-69
2021/10/24 00:29:56;;;;;;;367.60;347.77;;;;;;;6.71;70.34;102576.16;689791;28;44442;-69
2021/10/24 00:30:17;;;;;;;364.60;345.00;;;;;;;6.73;70.16;102574.22;693507;28;22219;-69
2021/10/24 00:30:38;;;;;;;349.95;331.23;;;;;;;6.73;70.39;102573.38;693172;28;21504;-67
2021/10/24 00:31:01;;;;;;;372.10;352.02;;;;;;;6.70;70.31;102574.44;690781;28;22391;-69
2021/10/24 00:31:23;;;;;;;380.10;359.65;;;;;;;6.70;70.09;102570.88;689113;28;90356;-69
2021/10/24 00:31:44;;;;;;;363.98;344.48;;;;;;;6.70;70.33;102568.22;690384;28;23463;-69
2021/10/24 00:32:07;;;;;;;349.30;330.65;;;;;;;6.70;70.27;102576.25;688461;28;21311;-69
2021/10/24 00:32:28;;;;;;;370.13;350.23;;;;;;;6.68;70.26;102573.69;687393;28;69430;-69
2021/10/24 00:32:49;;;;;;;374.27;354.13;;;;;;;6.68;70.23;102577.22;687366;28;23238;-69
2021/10/24 00:33:10;;;;;;;363.05;343.58;;;;;;;6.67;70.17;102577.31;688476;28;22206;-69
2021/10/24 00:33:33;;;;;;;347.08;328.50;;;;;;;6.68;70.24;102579.06;688773;28;22403;-69
2021/10/24 00:33:55;;;;;;;374.38;354.15;;;;;;;6.66;70.18;102575.59;686870;28;69652;-69
2021/10/24 00:34:16;;;;;;;364.65;345.15;;;;;;;6.67;70.00;102582.69;689120;28;23481;-69
2021/10/24 00:34:39;;;;;;;349.40;330.73;;;;;;;6.65;69.95;102572.06;688772;28;44447;-69
2021/10/24 00:35:03;;;;;;;333.90;315.95;;;;;;;6.64;70.00;102578.38;687763;28;69026;-69
2021/10/24 00:35:24;;;;;;;354.77;335.75;;;;;;;6.63;70.11;102575.81;688361;28;92320;-69
2021/10/24 00:35:46;;;;;;;365.23;345.67;;;;;;;6.62;70.14;102582.16;690593;28;21530;-69
2021/10/24 00:36:07;;;;;;;353.10;334.20;;;;;;;6.61;70.27;102572.38;690167;28;21494;-69
2021/10/24 00:36:29;;;;;;;339.80;321.70;;;;;;;6.63;70.18;102570.44;688012;28;22232;-69
2021/10/24 00:36:50;;;;;;;362.92;343.52;;;;;;;6.61;70.24;102572.38;687115;28;44913;-69
2021/10/24 00:37:11;;;;;;;359.45;340.20;;;;;;;6.64;70.38;102581.06;685361;28;23492;-69
2021/10/24 00:37:32;;;;;;;336.40;318.50;;;;;;;6.65;70.43;102577.44;685335;28;45241;-69
2021/10/24 00:37:53;;;;;;;340.10;321.90;;;;;;;6.65;70.15;102576.56;685330;28;23909;-69
2021/10/24 00:38:15;;;;;;;343.80;325.52;;;;;;;6.67;70.24;102572.81;685206;28;22375;-69
2021/10/24 00:38:36;;;;;;;334.10;316.40;;;;;;;6.69;70.51;102572.69;687160;28;44382;-69
2021/10/24 00:38:58;;;;;;;335.60;317.73;;;;;;;6.68;70.14;102579.06;691305;28;44349;-69
2021/10/24 00:39:19;;;;;;;355.15;336.15;;;;;;;6.67;70.26;102574.63;691318;28;22175;-69
2021/10/24 00:39:41;;;;;;;334.23;316.42;;;;;;;6.67;70.25;102575.50;692195;28;22389;-69
2021/10/24 00:40:03;;;;;;;316.60;299.65;;;;;;;6.66;70.29;102576.47;690809;28;46187;-69
2021/10/24 00:40:24;;;;;;;338.15;320.13;;;;;;;6.68;70.36;102571.84;690836;28;44367;-69
2021/10/24 00:40:45;;;;;;;339.60;321.58;;;;;;;6.68;70.30;102569.16;688813;28;23441;-70
2021/10/24 00:41:06;;;;;;;328.10;310.67;;;;;;;6.70;70.48;102576.25;689829;28;23446;-69
2021/10/24 00:41:30;;;;;;;333.55;315.85;;;;;;;6.69;70.48;102580.75;688004;28;22412;-69
2021/10/24 00:41:52;;;;;;;335.20;317.48;;;;;;;6.70;70.52;102573.56;688259;28;92325;-69
2021/10/24 00:42:13;;;;;;;320.33;303.30;;;;;;;6.69;70.58;102570.00;690874;28;23478;-69
2021/10/24 00:42:34;;;;;;;344.90;326.55;;;;;;;6.68;70.65;102574.53;691184;28;23451;-69
2021/10/24 00:42:55;;;;;;;351.00;332.37;;;;;;;6.68;70.70;102574.53;688004;28;23847;-69
2021/10/24 00:43:17;;;;;;;336.20;318.33;;;;;;;6.69;70.55;102575.38;684590;28;45319;-69
2021/10/24 00:43:39;;;;;;;316.45;299.60;;;;;;;6.69;70.71;102578.06;684515;28;46463;-69
2021/10/24 00:44:17;;;;;;;332.42;314.73;;;;;;;6.68;70.62;102569.16;684176;28;21529;-69
2021/10/24 00:44:38;;;;;;;327.52;310.13;;;;;;;6.69;70.61;102572.69;680453;28;158957;-69
2021/10/24 00:45:00;;;;;;;324.17;306.88;;;;;;;6.68;70.72;102563.78;685503;28;46301;-69
2021/10/24 00:45:23;;;;;;;359.65;340.33;;;;;;;6.68;70.60;102568.31;685702;28;45260;-69
2021/10/24 00:45:44;;;;;;;351.27;332.50;;;;;;;6.66;70.74;102565.72;685101;28;70242;-69
2021/10/24 00:46:06;;;;;;;330.30;312.77;;;;;;;6.67;70.74;102567.44;686332;28;21485;-69
2021/10/24 00:46:27;;;;;;;316.30;299.50;;;;;;;6.68;70.86;102568.31;685891;28;44342;-69
2021/10/24 00:46:49;;;;;;;328.95;311.45;;;;;;;6.67;70.58;102572.81;684592;28;21532;-69
2021/10/24 00:47:11;;;;;;;341.52;323.42;;;;;;;6.68;70.58;102574.53;687089;28;46286;-69
2021/10/24 00:47:33;;;;;;;327.58;310.17;;;;;;;6.67;70.49;102571.94;685243;28;45247;-69
2021/10/24 00:47:55;;;;;;;328.58;310.92;;;;;;;6.67;70.79;102567.44;686590;28;22398;-69
2021/10/24 00:48:16;;;;;;;356.75;337.70;;;;;;;6.67;70.58;102572.81;685407;28;69316;-69
2021/10/24 00:48:37;;;;;;;344.98;326.73;;;;;;;6.67;70.51;102563.91;684725;28;23767;-69
2021/10/24 00:48:59;;;;;;;332.05;314.38;;;;;;;6.66;70.61;102571.09;686620;28;22528;-69
2021/10/24 00:49:22;;;;;;;325.65;308.30;;;;;;;6.66;70.52;102570.22;687578;28;23484;-69
2021/10/24 00:49:43;;;;;;;352.73;333.95;;;;;;;6.66;70.51;102578.28;686666;28;69189;-69
2021/10/24 00:50:06;;;;;;;345.20;326.85;;;;;;;6.67;70.57;102571.94;687472;28;22450;-69
2021/10/24 00:50:28;;;;;;;326.63;309.30;;;;;;;6.67;70.77;102571.94;686376;28;73359;-69
2021/10/24 00:50:50;;;;;;;334.02;316.27;;;;;;;6.66;70.61;102573.78;687775;28;21640;-69
2021/10/24 00:51:13;;;;;;;365.88;346.33;;;;;;;6.66;70.56;102568.41;687267;28;46040;-69
2021/10/24 00:51:34;;;;;;;351.38;332.65;;;;;;;6.68;70.49;102576.38;686343;28;69630;-69
2021/10/24 00:51:55;;;;;;;332.48;314.75;;;;;;;6.70;70.50;102578.94;685098;28;21426;-69
2021/10/24 00:52:18;;;;;;;312.73;296.08;;;;;;;6.71;70.42;102572.59;686151;28;23472;-69
2021/10/24 00:52:41;;;;;;;325.55;308.30;;;;;;;6.72;70.69;102577.84;683028;28;90073;-69
2021/10/24 00:53:03;;;;;;;356.15;337.13;;;;;;;6.71;70.59;102568.09;687717;28;46244;-69
2021/10/24 00:53:25;;;;;;;352.00;333.30;;;;;;;6.71;70.46;102573.47;687728;28;46168;-69
2021/10/24 00:53:47;;;;;;;336.25;318.30;;;;;;;6.71;70.65;102576.16;688442;28;44373;-69
2021/10/24 00:54:10;;;;;;;344.40;326.05;;;;;;;6.71;70.49;102583.34;687462;28;44379;-69
2021/10/24 00:54:33;;;;;;;356.98;337.95;;;;;;;6.68;70.33;102574.53;688115;28;67594;-70
2021/10/24 00:54:54;;;;;;;341.95;323.73;;;;;;;6.68;70.42;102571.00;685247;28;69356;-69
2021/10/24 00:55:16;;;;;;;330.52;313.02;;;;;;;6.67;70.47;102567.44;685521;28;22391;-69
2021/10/24 00:55:38;;;;;;;357.65;338.55;;;;;;;6.66;70.34;102571.09;683666;28;67487;-69
2021/10/24 00:55:59;;;;;;;367.48;347.90;;;;;;;6.64;70.62;102564.97;685714;28;20854;-69
2021/10/24 00:56:21;;;;;;;351.63;332.88;;;;;;;6.66;70.45;102573.78;688107;28;18777;-69
2021/10/24 00:56:44;;;;;;;335.25;317.40;;;;;;;6.67;70.41;102571.94;687337;28;44197;-69
2021/10/24 00:57:05;;;;;;;339.10;321.05;;;;;;;6.66;70.50;102567.53;687165;28;68900;-70
2021/10/24 00:57:27;;;;;;;345.95;327.55;;;;;;;6.66;70.64;102571.09;687627;28;45235;-69
2021/10/24 00:57:49;;;;;;;329.30;311.77;;;;;;;6.66;70.71;102573.78;690150;28;22393;-69
2021/10/24 00:58:11;;;;;;;319.30;302.35;;;;;;;6.66;70.55;102580.97;689991;28;46524;-69
2021/10/24 00:58:36;;;;;;;332.73;315.02;;;;;;;6.65;70.73;102568.53;689206;28;69248;-69
2021/10/24 00:58:58;;;;;;;324.80;307.40;;;;;;;6.65;70.56;102566.69;688156;28;111280;-69
2021/10/24 00:59:19;;;;;;;317.48;300.42;;;;;;;6.61;70.40;102561.63;687753;28;21527;-69
2021/10/24 00:59:42;;;;;;;340.00;321.75;;;;;;;6.63;70.57;102568.63;684738;28;21503;-69
2021/10/24 01:00:06;;;;;;;343.60;325.17;;;;;;;6.59;70.45;102568.94;683956;28;69471;-69
2021/10/24 01:00:27;;;;;;;332.38;314.52;;;;;;;6.63;70.61;102567.75;683102;28;92341;-69
2021/10/24 01:00:48;;;;;;;347.50;328.88;;;;;;;6.63;70.65;102570.44;687612;28;20967;-69
2021/10/24 01:01:10;;;;;;;353.70;334.75;;;;;;;6.60;70.55;102568.84;689529;28;22394;-69
2021/10/24 01:01:32;;;;;;;344.98;326.45;;;;;;;6.62;70.60;102580.31;689982;28;69543;-69
2021/10/24 01:01:53;;;;;;;369.05;349.02;;;;;;;6.62;70.58;102577.63;693876;28;21547;-69
2021/10/24 01:02:14;;;;;;;382.35;361.60;;;;;;;6.62;70.59;102574.09;691948;28;1340;-69
2021/10/24 01:02:35;;;;;;;371.80;351.73;;;;;;;6.61;70.54;102575.91;690618;28;22393;-69
2021/10/24 01:02:57;;;;;;;358.20;339.02;;;;;;;6.61;70.56;102570.53;687761;28;45307;-69
2021/10/24 01:03:19;;;;;;;368.77;348.83;;;;;;;6.61;70.62;102569.69;687505;28;46435;-69
2021/10/24 01:03:40;;;;;;;370.67;350.73;;;;;;;6.59;70.63;102568.94;688177;28;23550;-69
2021/10/24 01:04:04;;;;;;;382.95;362.25;;;;;;;6.60;70.86;102574.22;685310;28;22407;-69
2021/10/24 01:04:25;;;;;;;402.95;381.08;;;;;;;6.60;70.84;102568.84;680420;28;92409;-69
2021/10/24 01:04:46;;;;;;;389.70;368.60;;;;;;;6.59;70.80;102568.94;683120;28;21504;-69
2021/10/24 01:05:10;;;;;;;368.60;348.75;;;;;;;6.57;70.79;102560.16;685948;28;23448;-70
2021/10/24 01:05:34;;;;;;;381.67;361.10;;;;;;;6.57;70.80;102566.38;682867;28;92265;-69
2021/10/24 01:05:59;;;;;;;396.15;374.58;;;;;;;6.57;70.87;102569.06;684222;28;92284;-69
2021/10/24 01:06:20;;;;;;;390.98;369.80;;;;;;;6.57;70.80;102569.06;683766;28;113547;-69
2021/10/24 01:06:42;;;;;;;387.95;366.83;;;;;;;6.58;71.09;102567.22;688336;28;21478;-69
2021/10/24 01:07:05;;;;;;;416.63;393.75;;;;;;;6.56;70.96;102561.94;683615;28;46423;-69
2021/10/24 01:07:26;;;;;;;404.73;382.67;;;;;;;6.57;71.10;102562.84;681558;28;68318;-69
2021/10/24 01:07:48;;;;;;;391.08;369.60;;;;;;;6.59;71.05;102574.31;684454;28;22403;-69
2021/10/24 01:08:10;;;;;;;403.40;381.50;;;;;;;6.59;71.09;102571.63;684544;28;46498;-70
2021/10/24 01:08:32;;;;;;;406.88;384.65;;;;;;;6.55;71.08;102557.56;685869;28;46431;-69
2021/10/24 01:08:53;;;;;;;395.45;373.90;;;;;;;6.61;71.00;102567.00;687850;28;29336;-69
2021/10/24 01:09:16;;;;;;;425.33;402.00;;;;;;;6.61;71.17;102567.84;690220;28;21676;-69
2021/10/24 01:09:38;;;;;;;420.85;397.88;;;;;;;6.61;71.17;102564.31;686363;28;69280;-69
2021/10/24 01:09:59;;;;;;;401.55;379.63;;;;;;;6.63;70.97;102570.44;685248;28;45194;-69
2021/10/24 01:10:22;;;;;;;391.80;370.45;;;;;;;6.65;71.07;102565.84;689164;28;46315;-69
2021/10/24 01:10:44;;;;;;;405.65;383.52;;;;;;;6.64;71.31;102566.78;688505;28;45259;-69
2021/10/24 01:11:06;;;;;;;398.73;377.05;;;;;;;6.64;71.03;102570.31;689191;28;23414;-69
2021/10/24 01:11:28;;;;;;;402.83;380.83;;;;;;;6.66;71.00;102562.16;688333;28;69229;-69
2021/10/24 01:11:52;;;;;;;423.63;400.42;;;;;;;6.66;71.00;102568.41;691152;28;46295;-69
2021/10/24 01:12:15;;;;;;;406.67;384.42;;;;;;;6.66;70.96;102563.06;685937;28;92294;-69
2021/10/24 01:12:36;;;;;;;396.58;375.05;;;;;;;6.65;70.83;102564.00;684268;28;44395;-69
2021/10/24 01:12:57;;;;;;;415.00;392.48;;;;;;;6.65;70.85;102566.69;684664;28;45223;-69
2021/10/24 01:13:20;;;;;;;411.90;389.38;;;;;;;6.66;71.09;102567.53;685263;28;22410;-69
2021/10/24 01:13:41;;;;;;;392.70;371.40;;;;;;;6.67;70.79;102569.25;686727;28;46512;-69
2021/10/24 01:14:02;;;;;;;398.50;376.88;;;;;;;6.66;70.82;102568.41;685522;28;46285;-69
2021/10/24 01:14:24;;;;;;;390.58;369.42;;;;;;;6.65;71.08;102568.53;686500;28;21506;-69
2021/10/24 01:14:45;;;;;;;403.23;381.40;;;;;;;6.65;70.92;102561.31;685542;28;22420;-69
2021/10/24 01:15:07;;;;;;;417.92;395.23;;;;;;;6.67;71.04;102571.94;685077;28;44371;-69
2021/10/24 01:15:28;;;;;;;410.38;388.10;;;;;;;6.64;70.92;102564.97;683533;28;46763;-69
2021/10/24 01:15:49;;;;;;;413.00;390.55;;;;;;;6.66;70.90;102567.53;683167;28;22514;-69
2021/10/24 01:16:12;;;;;;;433.25;409.65;;;;;;;6.65;70.83;102568.53;683474;28;22416;-69
2021/10/24 01:16:36;;;;;;;391.75;370.52;;;;;;;6.66;70.83;102567.53;680746;28;30049;-69
2021/10/24 01:16:57;;;;;;;375.92;355.65;;;;;;;6.66;70.97;102567.53;678817;28;92455;-69
2021/10/24 01:17:18;;;;;;;383.20;362.55;;;;;;;6.67;70.91;102569.25;682271;28;23518;-70
2021/10/24 01:17:40;;;;;;;399.88;378.25;;;;;;;6.63;70.99;102563.25;683119;28;21676;-69
2021/10/24 01:18:02;;;;;;;380.02;359.42;;;;;;;6.66;70.80;102567.53;685246;28;46450;-69
2021/10/24 01:18:23;;;;;;;385.23;364.48;;;;;;;6.66;70.84;102567.53;687433;28;23723;-67
2021/10/24 01:18:45;;;;;;;392.23;371.02;;;;;;;6.67;70.99;102561.22;690965;28;22404;-69
2021/10/24 01:19:09;;;;;;;371.45;351.58;;;;;;;6.67;71.17;102559.38;688775;28;69164;-70
2021/10/24 01:19:30;;;;;;;390.38;369.05;;;;;;;6.66;70.81;102567.53;683131;28;69219;-69
2021/10/24 01:19:51;;;;;;;429.90;406.15;;;;;;;6.67;70.99;102559.38;686110;28;22230;-69
2021/10/24 01:20:17;;;;;;;416.83;394.00;;;;;;;6.67;70.99;102563.91;684746;28;22500;-69
2021/10/24 01:20:38;;;;;;;396.58;375.05;;;;;;;6.66;71.24;102559.47;677807;28;139283;-69
2021/10/24 01:21:01;;;;;;;374.33;354.02;;;;;;;6.65;71.08;102555.94;678767;28;22471;-69
2021/10/24 01:21:22;;;;;;;400.83;378.88;;;;;;;6.65;70.97;102563.16;677755;29;42063;-69
2021/10/24 01:21:44;;;;;;;412.48;389.80;;;;;;;6.66;71.02;102559.47;677184;29;22507;-70
2021/10/24 01:22:05;;;;;;;399.10;377.27;;;;;;;6.66;71.35;102563.06;677534;29;34186;-69
2021/10/24 01:22:27;;;;;;;414.17;391.42;;;;;;;6.66;71.33;102564.84;678593;29;1013;-69
2021/10/24 01:22:49;;;;;;;432.50;408.65;;;;;;;6.66;71.20;102557.69;677589;29;45244;-69
2021/10/24 01:23:11;;;;;;;416.55;393.70;;;;;;;6.65;71.34;102560.47;678385;29;45342;-70
2021/10/24 01:23:32;;;;;;;402.40;380.35;;;;;;;6.65;71.10;102566.69;680828;29;23517;-69
2021/10/24 01:23:53;;;;;;;395.95;374.25;;;;;;;6.66;71.33;102560.38;680506;28;46284;-69
2021/10/24 01:24:15;;;;;;;402.73;380.65;;;;;;;6.67;71.37;102567.44;688761;28;1515;-70
2021/10/24 01:24:36;;;;;;;389.95;368.65;;;;;;;6.65;71.34;102553.25;688671;28;24169;-69
2021/10/24 01:24:58;;;;;;;378.63;357.98;;;;;;;6.67;71.44;102559.38;688705;28;22730;-69
2021/10/24 01:25:19;;;;;;;396.30;374.60;;;;;;;6.66;71.21;102555.00;688939;28;46448;-69
2021/10/24 01:25:41;;;;;;;397.45;375.65;;;;;;;6.68;71.45;102555.75;689046;28;44434;-69
2021/10/24 01:26:02;;;;;;;392.08;370.52;;;;;;;6.69;71.20;102559.28;687505;28;22393;-69
2021/10/24 01:26:24;;;;;;;390.13;368.77;;;;;;;6.68;71.42;102558.41;685928;28;21221;-70
2021/10/24 01:26:45;;;;;;;343.63;325.05;;;;;;;6.66;71.16;102549.63;684093;28;67294;-69
2021/10/24 01:27:06;;;;;;;332.27;314.30;;;;;;;6.66;71.42;102557.69;685497;28;22869;-69
2021/10/24 01:27:27;;;;;;;338.52;320.23;;;;;;;6.67;71.23;102554.00;688382;28;21523;-69
2021/10/24 01:27:50;;;;;;;362.05;342.30;;;;;;;6.67;71.43;102559.38;690418;28;24406;-69
2021/10/24 01:28:11;;;;;;;353.02;333.88;;;;;;;6.66;71.31;102555.00;690209;28;46376;-69
2021/10/24 01:28:33;;;;;;;359.48;340.02;;;;;;;6.66;71.25;102556.78;687665;28;23339;-69
2021/10/24 01:28:54;;;;;;;387.17;366.08;;;;;;;6.67;71.41;102559.38;683751;28;69459;-69
2021/10/24 01:29:16;;;;;;;381.60;360.90;;;;;;;6.66;71.55;102559.47;682190;28;23432;-70
2021/10/24 01:29:38;;;;;;;380.98;360.55;;;;;;;6.67;71.48;102558.53;680331;28;21537;-70
2021/10/24 01:29:59;;;;;;;400.02;378.33;;;;;;;6.65;71.38;102557.78;679737;28;45017;-69
2021/10/24 01:30:21;;;;;;;422.88;399.67;;;;;;;6.66;71.44;102555.00;682373;28;46278;-69
2021/10/24 01:30:43;;;;;;;441.00;416.75;;;;;;;6.69;71.35;102556.59;686342;28;22528;-69
2021/10/24 01:31:04;;;;;;;564.90;533.10;;;;;;;6.67;71.49;102553.16;685163;28;44524;-69
2021/10/24 01:31:26;;;;;;;550.78;519.60;;;;;;;6.67;71.24;102555.84;684768;28;45270;-69
2021/10/24 01:31:47;;;;;;;391.38;370.35;;;;;;;6.68;71.29;102560.25;687606;28;46323;-69
2021/10/24 01:32:09;;;;;;;369.60;349.90;;;;;;;6.68;71.21;102560.25;684404;28;45226;-69
2021/10/24 01:32:32;;;;;;;390.33;369.10;;;;;;;6.66;71.18;102555.00;682852;28;46241;-70
2021/10/24 01:32:53;;;;;;;381.63;360.98;;;;;;;6.66;71.39;102554.13;681581;28;44376;-70
2021/10/24 01:33:17;;;;;;;361.90;342.45;;;;;;;6.64;71.19;102559.59;681979;28;115344;-69
2021/10/24 01:33:38;;;;;;;391.98;370.63;;;;;;;6.64;71.11;102550.69;681358;28;17923;-69
2021/10/24 01:34:01;;;;;;;403.85;381.75;;;;;;;6.63;71.25;102552.53;681700;28;21584;-70
2021/10/24 01:34:22;;;;;;;409.38;386.92;;;;;;;6.62;71.29;102548.09;680777;28;68359;-69
2021/10/24 01:34:55;;;;;;;563.15;532.03;;;;;;;6.63;71.38;102557.00;680464;28;96961;-69
2021/10/24 01:35:17;;;;;;;651.40;614.13;;;;;;;6.62;71.30;102550.78;677785;29;89239;-69
2021/10/24 01:35:50;;;;;;;378.58;357.83;;;;;;;6.64;71.30;102558.75;682209;28;22400;-69
2021/10/24 01:36:13;;;;;;;271.45;257.10;;;;;;;6.62;71.45;102549.94;678681;28;157353;-70
2021/10/24 01:36:34;;;;;;;275.38;260.85;;;;;;;6.63;71.39;102551.63;682387;28;46383;-69
2021/10/24 01:36:56;;;;;;;260.05;246.32;;;;;;;6.61;71.50;102551.75;682741;28;23483;-70
2021/10/24 01:37:17;;;;;;;248.30;235.25;;;;;;;6.65;71.39;102547.88;681814;28;46273;-70
2021/10/24 01:37:41;;;;;;;265.80;251.75;;;;;;;6.66;71.57;102554.13;681345;28;22415;-69
2021/10/24 01:38:02;;;;;;;290.70;275.38;;;;;;;6.65;71.46;102555.94;678527;28;90876;-69
2021/10/24 01:38:24;;;;;;;294.92;279.42;;;;;;;6.64;71.30;102548.84;679500;29;21573;-69
2021/10/24 01:38:49;;;;;;;292.08;276.70;;;;;;;6.68;71.33;102560.25;684033;28;45291;-69
2021/10/24 01:39:11;;;;;;;307.35;291.00;;;;;;;6.68;71.40;102546.84;682007;28;115432;-69
2021/10/24 01:39:33;;;;;;;304.25;288.10;;;;;;;6.71;71.42;102554.66;685498;28;69504;-69